Time;durP1;ratioP1;P1;durP2;ratioP2;P2;SDS_P1;SDS_P2;PMS_P1;PMS_P2;Temp;Humidity;BMP_temperature;BMP_pressure;BME280_temperature;BME280_humidity;BME280_pressure;Samples;Min_cycle;Max_cycle;Signal;HPM_P1;HPM_P2
2021/12/04 12:15:30;;;;;;;16.77;2.92;;;;;;;;;;5079007;27;1367796;-61
2021/12/04 12:17:56;;;;;;;13.65;3.25;;;;;;;;;;5104390;28;20023;-61
2021/12/04 12:20:40;;;;;;;12.20;2.55;;;;;;;;;;5104970;28;20319;-61
2021/12/04 12:23:08;;;;;;;15.23;3.03;;;;;;;;;;5106228;28;20028;-62
2021/12/04 12:31:53;;;;;;;16.63;1.70;;;;;;;;;;5105470;28;20101;-61
2021/12/04 12:37:14;;;;;;;5.85;2.28;;;;;;;;;;5104399;28;20570;-61
2021/12/04 12:39:50;;;;;;;11.95;1.85;;;;;;;;;;5106284;28;20463;-61
2021/12/04 12:42:30;;;;;;;10.90;2.08;;;;;;;;;;5102906;28;20028;-61
2021/12/04 12:45:14;;;;;;;12.20;2.20;;;;;;;;;;5105911;28;20107;-61
2021/12/04 16:23:35;;;;;;;22.67;8.43;;;;;;;;;;5062735;28;20399;-60
2021/12/04 16:26:01;;;;;;;15.48;5.32;;;;;;;;;;5051721;28;20032;-61
2021/12/04 16:39:03;;;;;;;28.77;10.88;;;;;;;;;;5049152;28;20475;-61
2021/12/04 16:41:29;;;;;;;27.52;12.15;;;;;;;;;;5051699;28;20055;-61
2021/12/04 16:43:55;;;;;;;26.42;10.23;;;;;;;;;;5045644;28;20117;-61
2021/12/04 16:46:24;;;;;;;14.35;6.35;;;;;;;;;;5046231;28;20056;-61
2021/12/04 16:48:51;;;;;;;13.73;5.65;;;;;;;;;;5045089;28;20496;-61
2021/12/04 16:56:36;;;;;;;12.55;3.60;;;;;;;;;;5045050;28;20047;-62
2021/12/04 16:59:04;;;;;;;7.45;3.15;;;;;;;;;;5044649;28;20036;-61
2021/12/04 17:01:30;;;;;;;17.38;4.68;;;;;;;;;;5045137;28;20124;-62
2021/12/04 17:03:56;;;;;;;10.07;3.65;;;;;;;;;;5045168;28;20032;-62
2021/12/04 17:06:22;;;;;;;11.82;3.70;;;;;;;;;;5043613;28;20021;-62
2021/12/04 17:08:48;;;;;;;19.20;5.13;;;;;;;;;;5044647;28;20041;-62
2021/12/04 17:11:15;;;;;;;16.73;5.18;;;;;;;;;;5045044;28;20030;-61
2021/12/04 17:13:41;;;;;;;16.27;5.07;;;;;;;;;;5045105;28;20029;-62
2021/12/04 17:16:07;;;;;;;9.95;5.07;;;;;;;;;;5044234;28;20037;-62
2021/12/04 17:18:39;;;;;;;10.82;5.05;;;;;;;;;;5045192;28;20057;-61
2021/12/04 17:21:05;;;;;;;11.55;4.68;;;;;;;;;;5041526;28;20026;-62
2021/12/04 17:23:31;;;;;;;11.45;5.60;;;;;;;;;;5045365;28;20451;-61
2021/12/04 17:25:58;;;;;;;15.02;7.35;;;;;;;;;;5043102;28;20059;-62
2021/12/04 17:28:29;;;;;;;18.30;7.57;;;;;;;;;;5044380;28;20033;-61
2021/12/04 17:30:55;;;;;;;17.83;7.95;;;;;;;;;;5048017;28;20124;-61
2021/12/04 17:33:21;;;;;;;25.90;8.55;;;;;;;;;;5039863;28;20088;-62
2021/12/04 17:35:47;;;;;;;29.65;10.55;;;;;;;;;;5031655;28;20545;-61
2021/12/04 17:38:13;;;;;;;37.10;11.43;;;;;;;;;;5031464;28;20373;-61
2021/12/04 17:40:39;;;;;;;24.38;11.10;;;;;;;;;;5031299;28;20443;-61
2021/12/04 17:43:05;;;;;;;29.88;10.52;;;;;;;;;;5030884;28;20029;-63
2021/12/04 17:45:33;;;;;;;30.27;11.15;;;;;;;;;;5029583;28;20072;-63
2021/12/04 17:48:03;;;;;;;33.42;13.30;;;;;;;;;;5030920;28;20014;-63
2021/12/04 17:50:29;;;;;;;33.03;11.73;;;;;;;;;;5043294;28;20087;-63
2021/12/04 17:52:56;;;;;;;27.77;9.35;;;;;;;;;;5030657;28;20147;-63
2021/12/04 17:55:22;;;;;;;20.88;7.53;;;;;;;;;;5031499;28;20026;-63
2021/12/04 17:57:48;;;;;;;40.15;11.85;;;;;;;;;;5031289;28;20075;-63
2021/12/04 18:00:19;;;;;;;20.17;7.93;;;;;;;;;;5031272;28;20025;-63
2021/12/04 18:02:45;;;;;;;19.73;7.20;;;;;;;;;;5028321;28;20045;-63
2021/12/04 18:05:11;;;;;;;18.30;6.05;;;;;;;;;;5030779;28;20117;-63
2021/12/04 18:07:38;;;;;;;16.55;5.18;;;;;;;;;;5029902;28;20384;-64
2021/12/04 18:10:05;;;;;;;14.23;4.13;;;;;;;;;;5029065;28;20025;-63
2021/12/04 18:12:38;;;;;;;12.77;4.05;;;;;;;;;;5029424;28;20466;-62
2021/12/04 18:15:04;;;;;;;;;;;;;;;;;;5029737;28;20388;-62
2021/12/04 18:17:30;;;;;;;39.03;12.23;;;;;;;;;;5031087;28;19993;-63
2021/12/04 18:19:57;;;;;;;47.20;17.10;;;;;;;;;;5029360;28;20428;-63
2021/12/04 18:22:23;;;;;;;48.28;15.32;;;;;;;;;;5030329;28;20059;-62
2021/12/04 18:24:49;;;;;;;32.30;16.08;;;;;;;;;;5030053;28;20354;-62
2021/12/04 18:27:15;;;;;;;23.13;10.77;;;;;;;;;;5029470;28;20109;-63
2021/12/04 18:29:41;;;;;;;21.48;7.28;;;;;;;;;;5029200;28;20017;-63
2021/12/04 18:32:07;;;;;;;22.58;6.32;;;;;;;;;;5029607;28;20022;-63
2021/12/04 18:34:34;;;;;;;25.83;7.43;;;;;;;;;;5038370;28;20075;-63
2021/12/04 18:37:00;;;;;;;34.15;8.20;;;;;;;;;;5034350;28;20028;-64
2021/12/04 18:39:27;;;;;;;27.45;8.48;;;;;;;;;;5033738;28;20112;-63
2021/12/04 18:41:54;;;;;;;17.52;7.07;;;;;;;;;;5032985;28;20033;-63
2021/12/04 18:44:21;;;;;;;15.88;5.20;;;;;;;;;;5025671;28;20481;-63
2021/12/04 18:46:49;;;;;;;20.23;5.70;;;;;;;;;;5027212;28;20108;-63
2021/12/04 18:49:15;;;;;;;14.82;4.85;;;;;;;;;;5030946;28;20017;-63
2021/12/04 18:51:41;;;;;;;13.57;4.70;;;;;;;;;;5032925;28;20453;-63
2021/12/04 18:54:08;;;;;;;17.80;5.25;;;;;;;;;;5033562;28;20036;-63
2021/12/04 18:56:34;;;;;;;25.70;9.40;;;;;;;;;;5033142;28;20064;-63
2021/12/04 18:59:00;;;;;;;16.25;5.40;;;;;;;;;;5033387;28;20076;-63
2021/12/04 19:01:26;;;;;;;20.55;5.70;;;;;;;;;;5036675;28;20028;-63
2021/12/04 19:03:52;;;;;;;25.73;9.45;;;;;;;;;;5029171;28;20105;-63
2021/12/04 19:06:18;;;;;;;53.05;23.63;;;;;;;;;;5033937;28;20013;-63
2021/12/04 19:08:47;;;;;;;38.25;12.50;;;;;;;;;;5029379;28;20067;-63
2021/12/04 19:11:14;;;;;;;109.78;39.70;;;;;;;;;;5034781;28;20021;-63
2021/12/04 19:13:40;;;;;;;21.67;10.23;;;;;;;;;;5030442;28;20052;-63
2021/12/04 19:16:06;;;;;;;46.58;22.10;;;;;;;;;;5028694;28;20151;-63
2021/12/04 19:18:33;;;;;;;75.47;35.42;;;;;;;;;;5033155;28;20032;-63
2021/12/04 19:20:59;;;;;;;25.77;10.38;;;;;;;;;;5031734;28;20385;-63
2021/12/04 19:23:25;;;;;;;17.40;7.18;;;;;;;;;;5034171;28;20089;-63
2021/12/04 19:25:51;;;;;;;18.40;6.40;;;;;;;;;;5030657;28;20025;-63
2021/12/04 19:28:18;;;;;;;22.85;7.05;;;;;;;;;;5032765;28;20105;-63
2021/12/04 19:30:48;;;;;;;10.93;3.95;;;;;;;;;;5031301;28;20171;-64
2021/12/04 19:52:12;;;;;;;26.08;12.73;;;;;;;;;;5032551;28;20041;-63
2021/12/04 19:55:14;;;;;;;17.88;8.10;;;;;;;;;;5035405;28;20507;-63
2021/12/04 19:57:39;;;;;;;21.67;11.88;;;;;;;;;;5029003;28;20225;-63
2021/12/04 20:00:11;;;;;;;19.05;7.65;;;;;;;;;;5030867;28;20653;-63
2021/12/04 20:02:59;;;;;;;17.85;6.53;;;;;;;;;;5029924;28;20526;-63
2021/12/04 20:08:23;;;;;;;16.45;5.65;;;;;;;;;;5032343;28;20022;-63
2021/12/04 20:13:36;;;;;;;19.98;7.55;;;;;;;;;;5029086;28;20044;-63
2021/12/04 20:16:07;;;;;;;19.17;5.55;;;;;;;;;;5027843;28;20036;-63
2021/12/04 20:18:33;;;;;;;13.02;5.03;;;;;;;;;;5029303;28;20052;-63
2021/12/04 20:21:04;;;;;;;23.60;6.22;;;;;;;;;;5030246;28;20037;-63
2021/12/04 20:23:30;;;;;;;14.27;5.60;;;;;;;;;;5029640;28;20052;-62
2021/12/04 20:26:01;;;;;;;28.83;10.75;;;;;;;;;;5031755;28;20021;-63
2021/12/04 20:34:06;;;;;;;21.45;6.00;;;;;;;;;;5029947;28;20029;-63
2021/12/04 20:37:21;;;;;;;17.42;4.97;;;;;;;;;;5041479;28;20506;-63
2021/12/04 21:50:10;;;;;;;24.90;10.32;;;;;;;;;;5032639;28;20172;-63
2021/12/04 21:52:36;;;;;;;20.98;9.70;;;;;;;;;;5033089;28;20447;-63
2021/12/04 21:55:14;;;;;;;18.92;9.02;;;;;;;;;;5031224;28;20116;-63
2021/12/04 22:11:31;;;;;;;25.98;8.93;;;;;;;;;;5031759;28;20041;-62
2021/12/04 22:14:14;;;;;;;28.02;9.57;;;;;;;;;;5030546;28;20025;-62
2021/12/04 23:00:06;;;;;;;24.05;8.10;;;;;;;;;;5033180;28;20060;-63
